sensor_id;sensor_type;location;lat;lon;timestamp;P1;durP1;ratioP1;P2;durP2;ratioP2
4448;SDS011;2237;51.870;6.160;2023-08-20T00:00:15;14.70;;;6.18;;
4448;SDS011;2237;51.870;6.160;2023-08-20T00:02:42;14.23;;;5.35;;
4448;SDS011;2237;51.870;6.160;2023-08-20T00:05:11;10.00;;;4.70;;
4448;SDS011;2237;51.870;6.160;2023-08-20T00:07:39;9.75;;;5.15;;
4448;SDS011;2237;51.870;6.160;2023-08-20T00:10:06;12.98;;;5.13;;
4448;SDS011;2237;51.870;6.160;2023-08-20T00:12:33;9.40;;;5.38;;
4448;SDS011;2237;51.870;6.160;2023-08-20T00:17:32;14.77;;;5.50;;
4448;SDS011;2237;51.870;6.160;2023-08-20T00:20:01;12.60;;;4.75;;
4448;SDS011;2237;51.870;6.160;2023-08-20T00:22:35;12.57;;;4.85;;
4448;SDS011;2237;51.870;6.160;2023-08-20T00:25:02;13.45;;;4.72;;
4448;SDS011;2237;51.870;6.160;2023-08-20T00:27:30;13.13;;;5.10;;
4448;SDS011;2237;51.870;6.160;2023-08-20T00:29:57;10.77;;;4.53;;
4448;SDS011;2237;51.870;6.160;2023-08-20T00:32:23;8.32;;;3.88;;
4448;SDS011;2237;51.870;6.160;2023-08-20T00:34:50;7.93;;;4.18;;
4448;SDS011;2237;51.870;6.160;2023-08-20T00:37:16;10.13;;;4.43;;
4448;SDS011;2237;51.870;6.160;2023-08-20T00:39:43;9.93;;;4.13;;
4448;SDS011;2237;51.870;6.160;2023-08-20T00:42:09;11.15;;;4.63;;
4448;SDS011;2237;51.870;6.160;2023-08-20T00:44:36;10.82;;;4.25;;
4448;SDS011;2237;51.870;6.160;2023-08-20T00:47:02;13.82;;;4.18;;
4448;SDS011;2237;51.870;6.160;2023-08-20T00:49:31;12.63;;;4.93;;
4448;SDS011;2237;51.870;6.160;2023-08-20T00:51:58;11.80;;;5.43;;
4448;SDS011;2237;51.870;6.160;2023-08-20T00:54:26;13.48;;;5.28;;
4448;SDS011;2237;51.870;6.160;2023-08-20T00:56:54;9.90;;;5.85;;
4448;SDS011;2237;51.870;6.160;2023-08-20T00:59:21;18.45;;;5.75;;
4448;SDS011;2237;51.870;6.160;2023-08-20T01:01:47;10.13;;;4.80;;
4448;SDS011;2237;51.870;6.160;2023-08-20T01:04:14;12.18;;;5.13;;
4448;SDS011;2237;51.870;6.160;2023-08-20T01:06:55;10.35;;;5.88;;
4448;SDS011;2237;51.870;6.160;2023-08-20T01:12:34;12.48;;;4.93;;
4448;SDS011;2237;51.870;6.160;2023-08-20T01:15:01;12.93;;;4.97;;
4448;SDS011;2237;51.870;6.160;2023-08-20T01:17:28;9.07;;;3.90;;
4448;SDS011;2237;51.870;6.160;2023-08-20T01:19:55;11.40;;;3.78;;
4448;SDS011;2237;51.870;6.160;2023-08-20T01:28:17;8.63;;;4.55;;
4448;SDS011;2237;51.870;6.160;2023-08-20T01:30:57;8.48;;;4.50;;
4448;SDS011;2237;51.870;6.160;2023-08-20T01:33:25;11.15;;;4.45;;
4448;SDS011;2237;51.870;6.160;2023-08-20T01:35:52;14.35;;;4.65;;
4448;SDS011;2237;51.870;6.160;2023-08-20T01:38:20;7.07;;;3.72;;
4448;SDS011;2237;51.870;6.160;2023-08-20T01:40:47;9.55;;;4.00;;
4448;SDS011;2237;51.870;6.160;2023-08-20T01:43:14;11.95;;;5.20;;
4448;SDS011;2237;51.870;6.160;2023-08-20T01:45:41;13.10;;;4.80;;
4448;SDS011;2237;51.870;6.160;2023-08-20T01:48:08;10.25;;;4.57;;
4448;SDS011;2237;51.870;6.160;2023-08-20T01:50:35;11.55;;;4.50;;
4448;SDS011;2237;51.870;6.160;2023-08-20T01:53:02;6.97;;;3.42;;
4448;SDS011;2237;51.870;6.160;2023-08-20T01:55:29;12.82;;;4.18;;
4448;SDS011;2237;51.870;6.160;2023-08-20T01:57:58;8.02;;;3.28;;
4448;SDS011;2237;51.870;6.160;2023-08-20T02:00:24;8.85;;;3.92;;
4448;SDS011;2237;51.870;6.160;2023-08-20T02:02:51;9.60;;;4.22;;
4448;SDS011;2237;51.870;6.160;2023-08-20T02:05:17;10.82;;;3.83;;
4448;SDS011;2237;51.870;6.160;2023-08-20T02:07:44;17.27;;;3.88;;
4448;SDS011;2237;51.870;6.160;2023-08-20T02:10:10;13.45;;;3.38;;
4448;SDS011;2237;51.870;6.160;2023-08-20T02:12:36;9.20;;;2.78;;
4448;SDS011;2237;51.870;6.160;2023-08-20T02:15:05;8.07;;;3.08;;
4448;SDS011;2237;51.870;6.160;2023-08-20T02:17:32;10.07;;;3.30;;
4448;SDS011;2237;51.870;6.160;2023-08-20T02:20:02;6.20;;;2.72;;
4448;SDS011;2237;51.870;6.160;2023-08-20T02:22:30;12.23;;;3.17;;
4448;SDS011;2237;51.870;6.160;2023-08-20T02:24:56;7.05;;;3.17;;
4448;SDS011;2237;51.870;6.160;2023-08-20T02:27:23;7.88;;;2.92;;
4448;SDS011;2237;51.870;6.160;2023-08-20T02:29:49;8.10;;;2.90;;
4448;SDS011;2237;51.870;6.160;2023-08-20T02:32:15;10.60;;;3.03;;
4448;SDS011;2237;51.870;6.160;2023-08-20T02:34:43;8.73;;;2.90;;
4448;SDS011;2237;51.870;6.160;2023-08-20T02:37:09;8.30;;;3.03;;
4448;SDS011;2237;51.870;6.160;2023-08-20T02:39:36;11.80;;;3.50;;
4448;SDS011;2237;51.870;6.160;2023-08-20T02:42:02;14.80;;;3.47;;
4448;SDS011;2237;51.870;6.160;2023-08-20T02:44:29;10.35;;;3.20;;
4448;SDS011;2237;51.870;6.160;2023-08-20T02:46:55;7.50;;;3.90;;
4448;SDS011;2237;51.870;6.160;2023-08-20T02:49:22;11.30;;;4.03;;
4448;SDS011;2237;51.870;6.160;2023-08-20T02:51:48;11.15;;;3.75;;
4448;SDS011;2237;51.870;6.160;2023-08-20T02:54:14;13.20;;;3.75;;
4448;SDS011;2237;51.870;6.160;2023-08-20T02:56:41;10.10;;;3.60;;
4448;SDS011;2237;51.870;6.160;2023-08-20T02:59:07;10.48;;;3.20;;
4448;SDS011;2237;51.870;6.160;2023-08-20T03:01:34;10.13;;;3.60;;
4448;SDS011;2237;51.870;6.160;2023-08-20T03:04:01;11.98;;;3.80;;
4448;SDS011;2237;51.870;6.160;2023-08-20T03:06:27;11.05;;;3.17;;
4448;SDS011;2237;51.870;6.160;2023-08-20T03:08:53;10.18;;;3.47;;
4448;SDS011;2237;51.870;6.160;2023-08-20T03:11:20;8.98;;;3.05;;
4448;SDS011;2237;51.870;6.160;2023-08-20T03:13:46;9.98;;;3.55;;
4448;SDS011;2237;51.870;6.160;2023-08-20T03:16:12;9.82;;;3.25;;
4448;SDS011;2237;51.870;6.160;2023-08-20T03:18:39;11.90;;;3.13;;
4448;SDS011;2237;51.870;6.160;2023-08-20T03:21:05;8.90;;;3.78;;
4448;SDS011;2237;51.870;6.160;2023-08-20T03:23:32;7.97;;;3.00;;
4448;SDS011;2237;51.870;6.160;2023-08-20T03:25:58;8.55;;;3.58;;
4448;SDS011;2237;51.870;6.160;2023-08-20T03:28:25;6.45;;;2.75;;
4448;SDS011;2237;51.870;6.160;2023-08-20T03:30:51;8.48;;;3.15;;
4448;SDS011;2237;51.870;6.160;2023-08-20T03:33:18;9.23;;;3.95;;
4448;SDS011;2237;51.870;6.160;2023-08-20T03:35:45;8.63;;;3.30;;
4448;SDS011;2237;51.870;6.160;2023-08-20T03:38:12;11.60;;;3.33;;
4448;SDS011;2237;51.870;6.160;2023-08-20T03:40:38;12.70;;;3.80;;
4448;SDS011;2237;51.870;6.160;2023-08-20T03:43:04;8.05;;;3.60;;
4448;SDS011;2237;51.870;6.160;2023-08-20T03:45:31;11.45;;;3.95;;
4448;SDS011;2237;51.870;6.160;2023-08-20T03:47:57;9.85;;;4.10;;
4448;SDS011;2237;51.870;6.160;2023-08-20T03:50:24;12.70;;;3.80;;
4448;SDS011;2237;51.870;6.160;2023-08-20T03:52:50;8.52;;;3.92;;
4448;SDS011;2237;51.870;6.160;2023-08-20T03:55:17;14.63;;;4.95;;
4448;SDS011;2237;51.870;6.160;2023-08-20T03:57:43;9.48;;;3.92;;
4448;SDS011;2237;51.870;6.160;2023-08-20T04:00:10;11.38;;;4.38;;
4448;SDS011;2237;51.870;6.160;2023-08-20T04:02:38;10.27;;;4.65;;
4448;SDS011;2237;51.870;6.160;2023-08-20T04:05:04;12.73;;;5.38;;
4448;SDS011;2237;51.870;6.160;2023-08-20T04:07:31;11.23;;;5.30;;
4448;SDS011;2237;51.870;6.160;2023-08-20T04:09:57;11.13;;;5.75;;
4448;SDS011;2237;51.870;6.160;2023-08-20T04:12:24;12.07;;;5.25;;
4448;SDS011;2237;51.870;6.160;2023-08-20T04:14:50;12.52;;;5.35;;
4448;SDS011;2237;51.870;6.160;2023-08-20T04:17:16;11.38;;;4.72;;
4448;SDS011;2237;51.870;6.160;2023-08-20T04:19:43;13.60;;;5.47;;
4448;SDS011;2237;51.870;6.160;2023-08-20T04:22:10;12.38;;;5.43;;
4448;SDS011;2237;51.870;6.160;2023-08-20T04:24:36;9.95;;;5.60;;
4448;SDS011;2237;51.870;6.160;2023-08-20T04:27:03;11.68;;;5.95;;
4448;SDS011;2237;51.870;6.160;2023-08-20T04:29:29;9.82;;;5.60;;
4448;SDS011;2237;51.870;6.160;2023-08-20T04:31:55;9.70;;;5.22;;
4448;SDS011;2237;51.870;6.160;2023-08-20T04:34:22;14.18;;;5.45;;
4448;SDS011;2237;51.870;6.160;2023-08-20T04:36:48;14.02;;;5.75;;
4448;SDS011;2237;51.870;6.160;2023-08-20T04:39:15;12.30;;;5.85;;
4448;SDS011;2237;51.870;6.160;2023-08-20T04:41:41;12.82;;;6.03;;
4448;SDS011;2237;51.870;6.160;2023-08-20T04:44:07;10.52;;;6.00;;
4448;SDS011;2237;51.870;6.160;2023-08-20T04:46:34;15.02;;;5.93;;
4448;SDS011;2237;51.870;6.160;2023-08-20T04:49:00;11.77;;;6.22;;
4448;SDS011;2237;51.870;6.160;2023-08-20T04:51:27;15.95;;;6.03;;
4448;SDS011;2237;51.870;6.160;2023-08-20T04:53:53;11.32;;;5.45;;
4448;SDS011;2237;51.870;6.160;2023-08-20T04:56:19;12.30;;;5.28;;
4448;SDS011;2237;51.870;6.160;2023-08-20T04:58:46;11.15;;;5.70;;
4448;SDS011;2237;51.870;6.160;2023-08-20T05:01:12;15.30;;;5.45;;
4448;SDS011;2237;51.870;6.160;2023-08-20T05:03:39;15.98;;;6.55;;
4448;SDS011;2237;51.870;6.160;2023-08-20T05:06:05;10.25;;;6.55;;
4448;SDS011;2237;51.870;6.160;2023-08-20T05:08:32;15.77;;;7.70;;
4448;SDS011;2237;51.870;6.160;2023-08-20T05:10:58;13.48;;;6.78;;
4448;SDS011;2237;51.870;6.160;2023-08-20T05:13:25;11.65;;;6.22;;
4448;SDS011;2237;51.870;6.160;2023-08-20T05:15:51;12.55;;;6.40;;
4448;SDS011;2237;51.870;6.160;2023-08-20T05:18:17;11.15;;;5.47;;
4448;SDS011;2237;51.870;6.160;2023-08-20T05:20:44;13.85;;;6.05;;
4448;SDS011;2237;51.870;6.160;2023-08-20T05:23:10;11.27;;;6.05;;
4448;SDS011;2237;51.870;6.160;2023-08-20T05:25:37;10.65;;;5.65;;
4448;SDS011;2237;51.870;6.160;2023-08-20T05:28:03;10.52;;;5.50;;
4448;SDS011;2237;51.870;6.160;2023-08-20T05:30:30;10.48;;;5.35;;
4448;SDS011;2237;51.870;6.160;2023-08-20T05:32:56;17.85;;;5.88;;
4448;SDS011;2237;51.870;6.160;2023-08-20T05:35:22;9.38;;;5.38;;
4448;SDS011;2237;51.870;6.160;2023-08-20T05:37:49;12.02;;;6.00;;
4448;SDS011;2237;51.870;6.160;2023-08-20T05:40:15;11.70;;;5.57;;
4448;SDS011;2237;51.870;6.160;2023-08-20T05:42:42;10.65;;;4.88;;
4448;SDS011;2237;51.870;6.160;2023-08-20T05:45:08;9.98;;;4.75;;
4448;SDS011;2237;51.870;6.160;2023-08-20T05:47:35;10.45;;;4.82;;
4448;SDS011;2237;51.870;6.160;2023-08-20T05:50:02;11.95;;;4.72;;
4448;SDS011;2237;51.870;6.160;2023-08-20T05:52:29;9.15;;;5.38;;
4448;SDS011;2237;51.870;6.160;2023-08-20T05:54:56;11.73;;;5.00;;
4448;SDS011;2237;51.870;6.160;2023-08-20T05:57:22;9.63;;;5.72;;
4448;SDS011;2237;51.870;6.160;2023-08-20T05:59:49;11.68;;;5.45;;
4448;SDS011;2237;51.870;6.160;2023-08-20T06:02:15;10.15;;;5.45;;
4448;SDS011;2237;51.870;6.160;2023-08-20T06:04:44;16.67;;;5.45;;
4448;SDS011;2237;51.870;6.160;2023-08-20T06:07:10;7.90;;;4.82;;
4448;SDS011;2237;51.870;6.160;2023-08-20T06:09:37;11.32;;;5.38;;
4448;SDS011;2237;51.870;6.160;2023-08-20T06:12:03;10.57;;;5.10;;
4448;SDS011;2237;51.870;6.160;2023-08-20T06:14:30;12.50;;;5.05;;
4448;SDS011;2237;51.870;6.160;2023-08-20T06:16:56;10.98;;;5.18;;
4448;SDS011;2237;51.870;6.160;2023-08-20T06:19:23;13.02;;;5.88;;
4448;SDS011;2237;51.870;6.160;2023-08-20T06:21:49;12.20;;;5.20;;
4448;SDS011;2237;51.870;6.160;2023-08-20T06:24:16;11.75;;;4.93;;
4448;SDS011;2237;51.870;6.160;2023-08-20T06:26:42;8.93;;;5.10;;
4448;SDS011;2237;51.870;6.160;2023-08-20T06:29:10;13.13;;;5.35;;
4448;SDS011;2237;51.870;6.160;2023-08-20T06:31:37;15.32;;;5.22;;
4448;SDS011;2237;51.870;6.160;2023-08-20T06:34:03;17.17;;;5.75;;
4448;SDS011;2237;51.870;6.160;2023-08-20T06:36:30;13.30;;;5.90;;
4448;SDS011;2237;51.870;6.160;2023-08-20T06:38:56;12.05;;;6.47;;
4448;SDS011;2237;51.870;6.160;2023-08-20T06:41:23;15.43;;;6.07;;
4448;SDS011;2237;51.870;6.160;2023-08-20T06:43:49;12.95;;;5.97;;
4448;SDS011;2237;51.870;6.160;2023-08-20T06:46:15;11.63;;;5.47;;
4448;SDS011;2237;51.870;6.160;2023-08-20T06:48:42;12.40;;;5.40;;
4448;SDS011;2237;51.870;6.160;2023-08-20T06:51:11;10.57;;;4.70;;
4448;SDS011;2237;51.870;6.160;2023-08-20T06:53:38;12.13;;;4.57;;
4448;SDS011;2237;51.870;6.160;2023-08-20T06:56:10;11.65;;;4.18;;
4448;SDS011;2237;51.870;6.160;2023-08-20T06:58:39;13.35;;;4.25;;
4448;SDS011;2237;51.870;6.160;2023-08-20T07:01:06;11.10;;;2.90;;
4448;SDS011;2237;51.870;6.160;2023-08-20T07:06:07;7.63;;;2.00;;
4448;SDS011;2237;51.870;6.160;2023-08-20T07:08:37;7.18;;;2.17;;
4448;SDS011;2237;51.870;6.160;2023-08-20T07:11:07;6.05;;;1.48;;
4448;SDS011;2237;51.870;6.160;2023-08-20T07:13:34;4.95;;;1.30;;
4448;SDS011;2237;51.870;6.160;2023-08-20T07:16:00;6.60;;;1.00;;
4448;SDS011;2237;51.870;6.160;2023-08-20T07:18:27;5.85;;;1.20;;
4448;SDS011;2237;51.870;6.160;2023-08-20T07:20:54;4.10;;;1.30;;
4448;SDS011;2237;51.870;6.160;2023-08-20T07:23:21;4.32;;;1.50;;
4448;SDS011;2237;51.870;6.160;2023-08-20T07:25:47;9.55;;;1.38;;
4448;SDS011;2237;51.870;6.160;2023-08-20T07:28:14;6.13;;;1.50;;
4448;SDS011;2237;51.870;6.160;2023-08-20T07:30:41;9.57;;;1.52;;
4448;SDS011;2237;51.870;6.160;2023-08-20T07:33:07;4.70;;;1.40;;
4448;SDS011;2237;51.870;6.160;2023-08-20T07:35:34;10.52;;;2.08;;
4448;SDS011;2237;51.870;6.160;2023-08-20T07:38:01;5.75;;;1.42;;
4448;SDS011;2237;51.870;6.160;2023-08-20T07:40:28;4.97;;;1.70;;
4448;SDS011;2237;51.870;6.160;2023-08-20T07:42:54;7.07;;;2.28;;
4448;SDS011;2237;51.870;6.160;2023-08-20T07:45:22;7.95;;;1.95;;
4448;SDS011;2237;51.870;6.160;2023-08-20T07:47:48;10.27;;;2.60;;
4448;SDS011;2237;51.870;6.160;2023-08-20T07:50:15;9.15;;;2.20;;
4448;SDS011;2237;51.870;6.160;2023-08-20T07:52:41;6.38;;;1.90;;
4448;SDS011;2237;51.870;6.160;2023-08-20T07:55:08;6.45;;;1.50;;
4448;SDS011;2237;51.870;6.160;2023-08-20T07:57:34;5.03;;;1.45;;
4448;SDS011;2237;51.870;6.160;2023-08-20T08:00:01;4.50;;;1.40;;
4448;SDS011;2237;51.870;6.160;2023-08-20T08:02:30;5.43;;;1.35;;
4448;SDS011;2237;51.870;6.160;2023-08-20T08:04:56;4.60;;;1.23;;
4448;SDS011;2237;51.870;6.160;2023-08-20T08:07:23;6.32;;;1.20;;
4448;SDS011;2237;51.870;6.160;2023-08-20T08:09:49;4.53;;;1.33;;
4448;SDS011;2237;51.870;6.160;2023-08-20T08:12:16;5.80;;;1.40;;
4448;SDS011;2237;51.870;6.160;2023-08-20T08:14:42;8.10;;;1.17;;
4448;SDS011;2237;51.870;6.160;2023-08-20T08:17:08;5.15;;;1.20;;
4448;SDS011;2237;51.870;6.160;2023-08-20T08:19:35;5.47;;;1.60;;
4448;SDS011;2237;51.870;6.160;2023-08-20T08:22:01;6.93;;;1.42;;
4448;SDS011;2237;51.870;6.160;2023-08-20T08:24:29;9.40;;;2.00;;
4448;SDS011;2237;51.870;6.160;2023-08-20T08:26:55;7.75;;;1.75;;
4448;SDS011;2237;51.870;6.160;2023-08-20T08:29:21;7.55;;;1.50;;
4448;SDS011;2237;51.870;6.160;2023-08-20T08:31:48;6.18;;;2.03;;
4448;SDS011;2237;51.870;6.160;2023-08-20T08:34:14;7.88;;;1.50;;
4448;SDS011;2237;51.870;6.160;2023-08-20T08:36:40;6.75;;;1.80;;
4448;SDS011;2237;51.870;6.160;2023-08-20T08:39:07;5.50;;;1.30;;
4448;SDS011;2237;51.870;6.160;2023-08-20T08:41:33;5.32;;;1.75;;
4448;SDS011;2237;51.870;6.160;2023-08-20T08:44:01;5.68;;;1.20;;
4448;SDS011;2237;51.870;6.160;2023-08-20T08:46:28;9.18;;;1.83;;
4448;SDS011;2237;51.870;6.160;2023-08-20T08:48:56;7.32;;;1.60;;
4448;SDS011;2237;51.870;6.160;2023-08-20T08:51:23;4.80;;;1.35;;
4448;SDS011;2237;51.870;6.160;2023-08-20T08:53:50;6.38;;;1.55;;
4448;SDS011;2237;51.870;6.160;2023-08-20T08:56:16;9.07;;;2.25;;
4448;SDS011;2237;51.870;6.160;2023-08-20T08:58:43;7.07;;;2.13;;
4448;SDS011;2237;51.870;6.160;2023-08-20T09:01:09;6.25;;;1.63;;
4448;SDS011;2237;51.870;6.160;2023-08-20T09:03:36;8.68;;;1.90;;
4448;SDS011;2237;51.870;6.160;2023-08-20T09:06:02;5.88;;;1.70;;
4448;SDS011;2237;51.870;6.160;2023-08-20T09:08:35;9.00;;;1.95;;
4448;SDS011;2237;51.870;6.160;2023-08-20T09:11:02;5.65;;;1.60;;
4448;SDS011;2237;51.870;6.160;2023-08-20T09:13:32;8.00;;;2.30;;
4448;SDS011;2237;51.870;6.160;2023-08-20T09:16:06;8.77;;;1.77;;
4448;SDS011;2237;51.870;6.160;2023-08-20T09:21:07;7.43;;;1.55;;
4448;SDS011;2237;51.870;6.160;2023-08-20T09:23:35;4.68;;;1.52;;
4448;SDS011;2237;51.870;6.160;2023-08-20T09:26:02;5.20;;;1.42;;
4448;SDS011;2237;51.870;6.160;2023-08-20T09:28:31;6.18;;;1.33;;
4448;SDS011;2237;51.870;6.160;2023-08-20T09:31:07;6.55;;;1.25;;
4448;SDS011;2237;51.870;6.160;2023-08-20T09:33:37;5.80;;;1.63;;
4448;SDS011;2237;51.870;6.160;2023-08-20T09:36:14;5.00;;;2.15;;
4448;SDS011;2237;51.870;6.160;2023-08-20T09:38:40;9.65;;;1.75;;
4448;SDS011;2237;51.870;6.160;2023-08-20T09:41:08;4.95;;;1.60;;
4448;SDS011;2237;51.870;6.160;2023-08-20T09:43:38;9.10;;;1.75;;
4448;SDS011;2237;51.870;6.160;2023-08-20T09:46:05;4.63;;;1.60;;
4448;SDS011;2237;51.870;6.160;2023-08-20T09:48:35;7.20;;;1.80;;
4448;SDS011;2237;51.870;6.160;2023-08-20T09:51:04;5.15;;;1.13;;
4448;SDS011;2237;51.870;6.160;2023-08-20T09:53:35;5.53;;;1.73;;
4448;SDS011;2237;51.870;6.160;2023-08-20T09:56:15;3.55;;;1.10;;
4448;SDS011;2237;51.870;6.160;2023-08-20T09:58:48;5.47;;;1.20;;
4448;SDS011;2237;51.870;6.160;2023-08-20T10:01:14;4.88;;;1.25;;
4448;SDS011;2237;51.870;6.160;2023-08-20T10:03:41;6.40;;;1.67;;
4448;SDS011;2237;51.870;6.160;2023-08-20T10:06:09;5.78;;;1.95;;
4448;SDS011;2237;51.870;6.160;2023-08-20T10:08:37;4.60;;;1.27;;
4448;SDS011;2237;51.870;6.160;2023-08-20T10:11:04;6.03;;;1.50;;
4448;SDS011;2237;51.870;6.160;2023-08-20T10:13:30;3.38;;;1.00;;
4448;SDS011;2237;51.870;6.160;2023-08-20T10:15:57;3.20;;;1.20;;
4448;SDS011;2237;51.870;6.160;2023-08-20T10:18:24;5.10;;;1.10;;
4448;SDS011;2237;51.870;6.160;2023-08-20T10:20:50;2.50;;;1.00;;
4448;SDS011;2237;51.870;6.160;2023-08-20T10:23:20;3.50;;;0.80;;
4448;SDS011;2237;51.870;6.160;2023-08-20T10:25:51;4.75;;;0.73;;
4448;SDS011;2237;51.870;6.160;2023-08-20T10:28:23;4.28;;;1.17;;
4448;SDS011;2237;51.870;6.160;2023-08-20T10:31:05;5.55;;;1.02;;
4448;SDS011;2237;51.870;6.160;2023-08-20T10:33:34;5.20;;;0.80;;
4448;SDS011;2237;51.870;6.160;2023-08-20T10:36:08;5.22;;;0.70;;
4448;SDS011;2237;51.870;6.160;2023-08-20T10:38:42;2.65;;;0.60;;
4448;SDS011;2237;51.870;6.160;2023-08-20T10:41:11;1.77;;;0.60;;
4448;SDS011;2237;51.870;6.160;2023-08-20T10:43:38;2.22;;;0.50;;
4448;SDS011;2237;51.870;6.160;2023-08-20T10:48:50;1.90;;;0.60;;
4448;SDS011;2237;51.870;6.160;2023-08-20T10:56:40;3.35;;;0.50;;
4448;SDS011;2237;51.870;6.160;2023-08-20T10:59:33;3.05;;;0.40;;
4448;SDS011;2237;51.870;6.160;2023-08-20T11:02:00;6.10;;;0.80;;
4448;SDS011;2237;51.870;6.160;2023-08-20T11:04:31;1.70;;;0.35;;
4448;SDS011;2237;51.870;6.160;2023-08-20T11:07:01;2.83;;;0.40;;
4448;SDS011;2237;51.870;6.160;2023-08-20T11:09:28;2.70;;;0.30;;
4448;SDS011;2237;51.870;6.160;2023-08-20T11:11:56;1.30;;;0.40;;
4448;SDS011;2237;51.870;6.160;2023-08-20T11:14:23;1.25;;;0.30;;
4448;SDS011;2237;51.870;6.160;2023-08-20T11:16:49;1.65;;;0.50;;
4448;SDS011;2237;51.870;6.160;2023-08-20T11:19:22;1.23;;;0.50;;
4448;SDS011;2237;51.870;6.160;2023-08-20T11:21:50;2.78;;;0.70;;
4448;SDS011;2237;51.870;6.160;2023-08-20T11:24:17;2.50;;;0.50;;
4448;SDS011;2237;51.870;6.160;2023-08-20T11:26:46;2.85;;;0.45;;
4448;SDS011;2237;51.870;6.160;2023-08-20T11:29:13;2.00;;;0.50;;
4448;SDS011;2237;51.870;6.160;2023-08-20T11:31:45;2.08;;;0.30;;
4448;SDS011;2237;51.870;6.160;2023-08-20T11:34:12;1.52;;;0.35;;
4448;SDS011;2237;51.870;6.160;2023-08-20T11:36:39;1.67;;;0.40;;
4448;SDS011;2237;51.870;6.160;2023-08-20T11:39:06;2.08;;;0.30;;
4448;SDS011;2237;51.870;6.160;2023-08-20T11:41:37;2.17;;;0.20;;
4448;SDS011;2237;51.870;6.160;2023-08-20T11:46:31;5.03;;;0.50;;
4448;SDS011;2237;51.870;6.160;2023-08-20T11:51:28;1.37;;;0.30;;
4448;SDS011;2237;51.870;6.160;2023-08-20T11:53:56;1.63;;;0.40;;
4448;SDS011;2237;51.870;6.160;2023-08-20T11:56:23;2.28;;;0.40;;
4448;SDS011;2237;51.870;6.160;2023-08-20T11:58:50;1.70;;;0.38;;
4448;SDS011;2237;51.870;6.160;2023-08-20T12:01:20;1.85;;;0.30;;
4448;SDS011;2237;51.870;6.160;2023-08-20T12:03:46;3.17;;;0.50;;
4448;SDS011;2237;51.870;6.160;2023-08-20T12:06:19;2.00;;;0.55;;
4448;SDS011;2237;51.870;6.160;2023-08-20T12:08:47;1.80;;;0.40;;
4448;SDS011;2237;51.870;6.160;2023-08-20T12:11:13;1.95;;;0.40;;
4448;SDS011;2237;51.870;6.160;2023-08-20T12:13:40;3.13;;;0.65;;
4448;SDS011;2237;51.870;6.160;2023-08-20T12:16:07;2.92;;;0.47;;
4448;SDS011;2237;51.870;6.160;2023-08-20T12:18:33;2.90;;;0.50;;
4448;SDS011;2237;51.870;6.160;2023-08-20T12:21:00;2.47;;;0.50;;
4448;SDS011;2237;51.870;6.160;2023-08-20T12:23:28;2.38;;;0.50;;
4448;SDS011;2237;51.870;6.160;2023-08-20T12:25:55;1.00;;;0.38;;
4448;SDS011;2237;51.870;6.160;2023-08-20T12:28:21;1.45;;;0.30;;
4448;SDS011;2237;51.870;6.160;2023-08-20T12:30:48;2.85;;;0.52;;
4448;SDS011;2237;51.870;6.160;2023-08-20T12:33:15;2.92;;;0.55;;
4448;SDS011;2237;51.870;6.160;2023-08-20T12:35:41;1.85;;;0.50;;
4448;SDS011;2237;51.870;6.160;2023-08-20T12:38:07;2.58;;;0.47;;
4448;SDS011;2237;51.870;6.160;2023-08-20T12:40:34;4.10;;;0.57;;
4448;SDS011;2237;51.870;6.160;2023-08-20T12:43:00;3.47;;;0.70;;
4448;SDS011;2237;51.870;6.160;2023-08-20T12:45:27;4.65;;;0.93;;
4448;SDS011;2237;51.870;6.160;2023-08-20T12:47:53;3.20;;;0.50;;
4448;SDS011;2237;51.870;6.160;2023-08-20T12:50:20;1.58;;;0.40;;
4448;SDS011;2237;51.870;6.160;2023-08-20T12:52:46;3.45;;;0.50;;
4448;SDS011;2237;51.870;6.160;2023-08-20T12:55:15;2.05;;;0.43;;
4448;SDS011;2237;51.870;6.160;2023-08-20T12:58:03;2.40;;;0.40;;
4448;SDS011;2237;51.870;6.160;2023-08-20T13:00:28;3.40;;;0.40;;
4448;SDS011;2237;51.870;6.160;2023-08-20T13:02:54;2.80;;;0.65;;
4448;SDS011;2237;51.870;6.160;2023-08-20T13:05:22;3.67;;;0.52;;
4448;SDS011;2237;51.870;6.160;2023-08-20T13:07:50;3.80;;;0.70;;
4448;SDS011;2237;51.870;6.160;2023-08-20T13:10:17;2.97;;;0.47;;
4448;SDS011;2237;51.870;6.160;2023-08-20T13:12:51;1.38;;;0.50;;
4448;SDS011;2237;51.870;6.160;2023-08-20T13:15:20;1.10;;;0.52;;
4448;SDS011;2237;51.870;6.160;2023-08-20T13:17:49;4.35;;;0.80;;
4448;SDS011;2237;51.870;6.160;2023-08-20T13:20:16;3.50;;;0.57;;
4448;SDS011;2237;51.870;6.160;2023-08-20T13:22:51;3.15;;;0.82;;
4448;SDS011;2237;51.870;6.160;2023-08-20T13:25:18;2.10;;;0.52;;
4448;SDS011;2237;51.870;6.160;2023-08-20T13:27:47;6.53;;;0.73;;
4448;SDS011;2237;51.870;6.160;2023-08-20T13:30:14;2.85;;;0.65;;
4448;SDS011;2237;51.870;6.160;2023-08-20T13:32:40;2.40;;;0.40;;
4448;SDS011;2237;51.870;6.160;2023-08-20T13:35:07;2.65;;;0.40;;
4448;SDS011;2237;51.870;6.160;2023-08-20T13:37:36;3.08;;;0.63;;
4448;SDS011;2237;51.870;6.160;2023-08-20T13:40:02;2.20;;;0.60;;
4448;SDS011;2237;51.870;6.160;2023-08-20T13:42:35;2.85;;;0.60;;
4448;SDS011;2237;51.870;6.160;2023-08-20T13:45:03;2.92;;;0.50;;
4448;SDS011;2237;51.870;6.160;2023-08-20T13:47:30;1.73;;;0.60;;
4448;SDS011;2237;51.870;6.160;2023-08-20T13:49:56;1.98;;;0.43;;
4448;SDS011;2237;51.870;6.160;2023-08-20T13:52:23;2.20;;;0.57;;
4448;SDS011;2237;51.870;6.160;2023-08-20T13:54:49;4.10;;;0.88;;
4448;SDS011;2237;51.870;6.160;2023-08-20T13:57:16;1.83;;;0.45;;
4448;SDS011;2237;51.870;6.160;2023-08-20T13:59:42;2.83;;;0.70;;
4448;SDS011;2237;51.870;6.160;2023-08-20T14:02:09;2.95;;;0.60;;
4448;SDS011;2237;51.870;6.160;2023-08-20T14:04:35;3.38;;;0.60;;
4448;SDS011;2237;51.870;6.160;2023-08-20T14:07:03;2.40;;;0.60;;
4448;SDS011;2237;51.870;6.160;2023-08-20T14:09:29;1.85;;;0.68;;
4448;SDS011;2237;51.870;6.160;2023-08-20T14:11:56;1.30;;;0.50;;
4448;SDS011;2237;51.870;6.160;2023-08-20T14:14:22;1.52;;;0.60;;
4448;SDS011;2237;51.870;6.160;2023-08-20T14:16:49;3.67;;;0.75;;
4448;SDS011;2237;51.870;6.160;2023-08-20T14:19:15;2.63;;;0.77;;
4448;SDS011;2237;51.870;6.160;2023-08-20T14:21:41;3.92;;;1.00;;
4448;SDS011;2237;51.870;6.160;2023-08-20T14:24:08;2.30;;;0.70;;
4448;SDS011;2237;51.870;6.160;2023-08-20T14:26:34;1.92;;;0.93;;
4448;SDS011;2237;51.870;6.160;2023-08-20T14:29:01;2.97;;;1.00;;
4448;SDS011;2237;51.870;6.160;2023-08-20T14:31:28;2.00;;;0.70;;
4448;SDS011;2237;51.870;6.160;2023-08-20T14:33:54;2.13;;;0.80;;
4448;SDS011;2237;51.870;6.160;2023-08-20T14:36:21;2.85;;;0.80;;
4448;SDS011;2237;51.870;6.160;2023-08-20T14:38:47;1.55;;;0.80;;
4448;SDS011;2237;51.870;6.160;2023-08-20T14:41:13;2.08;;;1.00;;
4448;SDS011;2237;51.870;6.160;2023-08-20T14:43:40;3.50;;;0.98;;
4448;SDS011;2237;51.870;6.160;2023-08-20T14:46:08;3.03;;;0.90;;
4448;SDS011;2237;51.870;6.160;2023-08-20T14:48:34;1.20;;;0.70;;
4448;SDS011;2237;51.870;6.160;2023-08-20T14:51:01;3.55;;;1.08;;
4448;SDS011;2237;51.870;6.160;2023-08-20T14:53:29;3.58;;;0.90;;
4448;SDS011;2237;51.870;6.160;2023-08-20T14:55:55;2.22;;;1.10;;
4448;SDS011;2237;51.870;6.160;2023-08-20T14:58:22;2.15;;;1.13;;
4448;SDS011;2237;51.870;6.160;2023-08-20T15:00:48;2.50;;;1.10;;
4448;SDS011;2237;51.870;6.160;2023-08-20T15:03:15;3.15;;;0.93;;
4448;SDS011;2237;51.870;6.160;2023-08-20T15:05:42;3.15;;;1.15;;
4448;SDS011;2237;51.870;6.160;2023-08-20T15:08:09;2.72;;;0.90;;
4448;SDS011;2237;51.870;6.160;2023-08-20T15:10:35;2.03;;;0.80;;
4448;SDS011;2237;51.870;6.160;2023-08-20T15:13:01;2.20;;;0.85;;
4448;SDS011;2237;51.870;6.160;2023-08-20T15:15:29;3.50;;;1.20;;
4448;SDS011;2237;51.870;6.160;2023-08-20T15:17:55;3.50;;;1.30;;
4448;SDS011;2237;51.870;6.160;2023-08-20T15:20:22;2.65;;;0.93;;
4448;SDS011;2237;51.870;6.160;2023-08-20T15:22:49;3.10;;;1.38;;
4448;SDS011;2237;51.870;6.160;2023-08-20T15:25:15;2.50;;;1.00;;
4448;SDS011;2237;51.870;6.160;2023-08-20T15:27:42;2.88;;;1.08;;
4448;SDS011;2237;51.870;6.160;2023-08-20T15:30:09;2.80;;;1.20;;
4448;SDS011;2237;51.870;6.160;2023-08-20T15:32:36;1.88;;;0.88;;
4448;SDS011;2237;51.870;6.160;2023-08-20T15:35:02;3.17;;;1.00;;
4448;SDS011;2237;51.870;6.160;2023-08-20T15:37:31;3.40;;;1.17;;
4448;SDS011;2237;51.870;6.160;2023-08-20T15:39:58;2.33;;;1.20;;